Time;durP1;ratioP1;P1;durP2;ratioP2;P2;SDS_P1;SDS_P2;PMS_P1;PMS_P2;Temp;Humidity;BMP_temperature;BMP_pressure;BME280_temperature;BME280_humidity;BME280_pressure;Samples;Min_cycle;Max_cycle;Signal;HPM_P1;HPM_P2
2022/06/09 00:00:56;;;;;;;5.20;1.23;;;;;;;;;;4993604;28;20038;-76
2022/06/09 00:03:33;;;;;;;1.73;1.40;;;;;;;22.11;53.98;98085.31;4993848;28;20027;-73
2022/06/09 00:05:58;;;;;;;3.00;1.40;;;;;;;22.08;54.00;98083.06;4993836;28;20038;-73
2022/06/09 00:08:24;;;;;;;2.30;1.10;;;;;;;22.04;54.03;98080.00;4993884;28;20774;-73
2022/06/09 00:10:53;;;;;;;5.22;1.30;;;;;;;22.03;54.35;98086.31;4993526;28;20050;-71
2022/06/09 00:13:19;;;;;;;5.95;1.35;;;;;;;22.01;54.61;98087.53;4993798;28;20069;-71
2022/06/09 00:15:45;;;;;;;4.10;1.45;;;;;;;22.01;54.14;98082.22;4993315;28;20045;-71
2022/06/09 00:18:10;;;;;;;8.27;1.38;;;;;;;21.98;54.46;98078.16;4995161;28;20034;-71
2022/06/09 00:20:36;;;;;;;3.65;1.50;;;;;;;21.98;54.63;98075.50;4994770;28;20030;-73
2022/06/09 00:23:01;;;;;;;1.83;1.35;;;;;;;21.98;54.43;98080.81;4994766;28;20050;-71
2022/06/09 00:25:27;;;;;;;4.30;1.20;;;;;;;21.97;54.54;98068.56;4992982;28;20417;-73
2022/06/09 00:27:52;;;;;;;3.85;1.50;;;;;;;22.01;54.40;98071.59;4994396;28;20093;-73
2022/06/09 00:30:18;;;;;;;2.10;1.30;;;;;;;22.03;54.43;98066.91;4993342;28;20026;-74
2022/06/09 00:32:44;;;;;;;3.05;1.50;;;;;;;22.01;54.36;98067.13;4993539;28;20026;-73
2022/06/09 00:35:10;;;;;;;2.50;1.33;;;;;;;21.99;54.29;98068.34;4993469;28;20034;-71
2022/06/09 00:37:36;;;;;;;1.88;1.13;;;;;;;22.00;54.57;98073.44;4992921;28;20046;-73
2022/06/09 00:40:05;;;;;;;2.05;1.25;;;;;;;22.00;54.29;98077.97;4994486;28;20030;-71
2022/06/09 00:42:32;;;;;;;3.45;1.30;;;;;;;22.01;54.42;98074.25;4993284;28;20054;-73
2022/06/09 00:45:29;;;;;;;4.18;1.35;;;;;;;22.02;54.19;98076.72;4994604;28;20026;-73
2022/06/09 00:48:03;;;;;;;3.05;1.30;;;;;;;22.02;54.54;98078.56;4994546;28;20030;-73
2022/06/09 00:50:29;;;;;;;4.70;1.45;;;;;;;22.02;54.41;98079.38;4994166;28;20510;-72
2022/06/09 00:52:57;;;;;;;2.60;1.05;;;;;;;21.99;54.72;98069.16;4993041;28;20045;-71
2022/06/09 00:55:23;;;;;;;2.30;1.27;;;;;;;22.00;54.47;98070.00;4992995;28;20026;-72
2022/06/09 00:57:54;;;;;;;3.65;1.40;;;;;;;22.02;54.46;98081.22;4993367;28;20057;-71
2022/06/09 01:00:29;;;;;;;1.95;1.20;;;;;;;22.00;54.77;98077.97;4992769;28;20042;-72
2022/06/09 01:02:55;;;;;;;3.72;1.17;;;;;;;22.00;54.84;98083.28;4992325;28;20527;-73
2022/06/09 01:05:21;;;;;;;2.75;1.30;;;;;;;22.00;54.77;98083.28;4992746;28;20413;-72
2022/06/09 01:07:48;;;;;;;4.85;1.27;;;;;;;21.99;54.82;98077.13;4976557;28;20022;-72
2022/06/09 01:10:14;;;;;;;2.88;1.30;;;;;;;21.99;54.86;98076.31;4992853;28;20544;-72
2022/06/09 01:12:41;;;;;;;4.10;1.30;;;;;;;22.00;54.57;98077.97;4992462;28;20030;-72
2022/06/09 01:15:10;;;;;;;3.70;1.50;;;;;;;21.99;54.74;98069.16;4992781;28;20051;-72
2022/06/09 01:17:43;;;;;;;4.50;1.42;;;;;;;21.96;54.89;98072.22;4992130;28;20453;-72
2022/06/09 01:20:26;;;;;;;4.72;1.48;;;;;;;21.93;54.79;98066.50;4994151;28;20026;-72
2022/06/09 01:23:39;;;;;;;4.07;1.40;;;;;;;21.98;54.83;98072.84;4993019;28;20092;-72
2022/06/09 01:26:23;;;;;;;2.70;1.30;;;;;;;21.95;54.69;98069.78;4972247;28;20038;-72
2022/06/09 01:29:04;;;;;;;6.78;1.50;;;;;;;21.95;55.05;98078.56;4971738;28;20542;-72
2022/06/09 01:31:32;;;;;;;2.42;1.20;;;;;;;21.94;55.11;98078.78;4972322;28;20037;-72
2022/06/09 01:34:05;;;;;;;3.80;1.65;;;;;;;21.92;55.11;98075.50;4972006;28;20046;-72
2022/06/09 01:36:41;;;;;;;5.32;1.50;;;;;;;21.95;54.90;98075.91;4955890;28;20045;-72
2022/06/09 01:39:06;;;;;;;2.90;1.40;;;;;;;21.96;55.02;98069.56;4956109;28;20035;-72
2022/06/09 01:41:32;;;;;;;6.65;1.60;;;;;;;21.94;54.79;98065.50;4939763;28;20126;-72
2022/06/09 01:43:58;;;;;;;4.32;1.60;;;;;;;21.95;54.97;98067.13;4939749;28;20542;-72
2022/06/09 01:46:33;;;;;;;2.55;1.42;;;;;;;21.91;55.26;98077.34;4955704;28;20043;-72
2022/06/09 01:49:10;;;;;;;2.85;1.45;;;;;;;21.88;55.23;98066.31;4955898;28;20045;-72
2022/06/09 01:51:39;;;;;;;2.10;1.40;;;;;;;21.92;55.09;98070.19;4955356;28;20117;-72
2022/06/09 01:54:32;;;;;;;3.15;1.50;;;;;;;21.93;55.03;98069.16;4940044;28;20182;-72
2022/06/09 01:57:09;;;;;;;2.70;1.50;;;;;;;21.91;55.08;98065.91;4939653;28;20065;-70
2022/06/09 01:59:35;;;;;;;4.60;1.42;;;;;;;22.02;55.97;98068.75;4948454;28;20128;-69
2022/06/09 02:02:04;;;;;;;2.80;1.92;;;;;;;22.15;55.05;98070.56;4991447;28;20242;-81
2022/06/09 02:04:42;;;;;;;6.55;1.90;;;;;;;21.87;55.60;98062.84;4974001;28;20057;-80
2022/06/09 02:07:10;;;;;;;4.32;1.80;;;;;;;21.65;56.40;98070.22;4975318;28;20034;-84
2022/06/09 02:09:37;;;;;;;;;;;;;;;21.46;57.22;98067.31;4976795;28;20085;-84
2022/06/09 02:12:16;;;;;;;3.75;1.75;;;;;;;21.28;57.46;98064.44;4991439;28;19909;-81
2022/06/09 02:14:45;;;;;;;3.33;2.00;;;;;;;21.17;57.74;98071.16;4974543;28;20497;-83
2022/06/09 02:17:10;;;;;;;4.60;2.13;;;;;;;21.08;58.10;98067.88;4975213;28;20081;-83
2022/06/09 02:19:37;;;;;;;3.58;2.00;;;;;;;20.96;58.49;98066.84;4974740;28;20030;-85
2022/06/09 02:22:06;;;;;;;4.75;1.80;;;;;;;20.98;58.60;98078.06;4974532;28;20034;-78
2022/06/09 02:24:32;;;;;;;3.42;1.77;;;;;;;21.03;58.37;98080.09;4990564;28;20090;-81
2022/06/09 02:26:58;;;;;;;4.43;1.70;;;;;;;21.06;58.36;98077.06;4974577;28;20049;-80
2022/06/09 02:29:24;;;;;;;3.58;1.63;;;;;;;21.12;57.93;98078.91;4990392;28;20528;-80
2022/06/09 02:31:49;;;;;;;4.97;1.63;;;;;;;21.07;58.10;98074.19;4992007;28;20030;-90
2022/06/09 02:34:15;;;;;;;2.38;1.55;;;;;;;21.20;57.79;98070.75;4974277;28;20513;-88
2022/06/09 02:36:40;;;;;;;6.28;1.70;;;;;;;21.41;57.24;98083.06;4992040;28;20497;-85
2022/06/09 02:39:06;;;;;;;2.83;1.55;;;;;;;21.53;56.86;98082.47;4991596;28;20449;-87
2022/06/09 02:41:33;;;;;;;4.70;1.52;;;;;;;21.63;56.29;98074.91;4992176;28;20398;-87
2022/06/09 02:43:58;;;;;;;5.20;1.70;;;;;;;21.71;56.07;98076.53;4990596;28;20027;-85
2022/06/09 02:46:25;;;;;;;4.88;1.80;;;;;;;21.68;56.08;98077.78;4977173;28;20164;-89
2022/06/09 02:48:52;;;;;;;2.20;1.35;;;;;;;21.58;56.12;98062.25;4991715;28;20030;-90
2022/06/09 02:51:26;;;;;;;3.92;1.42;;;;;;;21.61;56.18;98076.97;4991960;28;20042;-91
2022/06/09 02:53:52;;;;;;;3.10;1.65;;;;;;;21.58;56.31;98067.53;4974403;28;20430;-90
2022/06/09 02:56:18;;;;;;;4.47;1.50;;;;;;;21.71;56.04;98076.53;4990711;28;20034;-90
2022/06/09 02:58:44;;;;;;;3.47;1.50;;;;;;;21.82;55.46;98073.25;4974188;28;20046;-89
2022/06/09 03:01:09;;;;;;;2.28;1.70;;;;;;;22.18;54.63;98079.97;4990579;28;20113;-91
2022/06/09 03:03:35;;;;;;;3.30;1.50;;;;;;;22.59;53.57;98082.31;4990057;28;20126;-90
2022/06/09 03:06:00;;;;;;;6.93;1.70;;;;;;;22.68;52.77;98082.91;4991482;28;20034;-86
2022/06/09 03:08:26;;;;;;;2.20;1.50;;;;;;;22.38;53.70;98085.28;4990325;28;20073;-89
2022/06/09 03:10:52;;;;;;;2.70;1.60;;;;;;;22.29;53.83;98083.81;4990732;28;20585;-89
2022/06/09 03:13:17;;;;;;;4.70;1.73;;;;;;;22.30;54.20;98090.81;4990015;28;20508;-90
2022/06/09 03:15:43;;;;;;;4.63;1.63;;;;;;;22.26;53.92;98084.25;4990494;28;20409;-85
2022/06/09 03:18:10;;;;;;;4.28;1.67;;;;;;;22.48;53.59;98080.31;4991258;28;20135;-85
2022/06/09 03:20:36;;;;;;;4.30;1.55;;;;;;;23.16;51.84;98079.00;4991691;28;20109;-86
2022/06/09 03:23:01;;;;;;;3.17;1.25;;;;;;;23.74;50.16;98085.16;4991464;28;20121;-87
2022/06/09 03:25:27;;;;;;;4.15;1.40;;;;;;;24.30;48.69;98089.56;4990679;28;20034;-77
2022/06/09 03:27:53;;;;;;;2.88;1.23;;;;;;;24.94;47.08;98097.25;4994020;28;20054;-78
2022/06/09 03:30:18;;;;;;;5.10;1.50;;;;;;;25.70;45.55;98094.94;4995073;28;20027;-78
2022/06/09 03:32:44;;;;;;;6.53;1.60;;;;;;;26.31;43.75;98081.34;4993735;28;20481;-79
2022/06/09 03:35:09;;;;;;;3.22;1.52;;;;;;;26.69;42.69;98077.34;4993811;28;20033;-87
2022/06/09 03:37:35;;;;;;;4.22;1.60;;;;;;;26.96;41.24;98082.94;4993618;28;20112;-83
2022/06/09 03:40:03;;;;;;;6.63;1.70;;;;;;;27.25;40.59;98086.41;4994948;28;20069;-83
2022/06/09 03:42:29;;;;;;;6.30;1.85;;;;;;;27.16;40.76;98079.00;4993334;28;20038;-79
2022/06/09 03:44:54;;;;;;;3.00;1.58;;;;;;;26.88;41.55;98075.28;4994642;28;20037;-79
2022/06/09 03:47:19;;;;;;;4.53;2.22;;;;;;;27.82;39.70;98081.19;4994806;28;20043;-77
2022/06/09 03:49:45;;;;;;;3.70;1.90;;;;;;;28.48;38.27;98070.56;4995224;28;20034;-81
2022/06/09 03:52:10;;;;;;;4.35;1.95;;;;;;;28.95;37.04;98069.25;4994316;28;20085;-81
2022/06/09 03:54:36;;;;;;;4.43;2.28;;;;;;;28.78;36.89;98063.97;4994960;28;20500;-77
2022/06/09 03:57:02;;;;;;;7.22;2.22;;;;;;;29.11;36.00;98067.53;4994193;28;20031;-80
2022/06/09 03:59:28;;;;;;;5.13;1.92;;;;;;;29.76;35.03;98065.66;4993605;28;20034;-78
2022/06/09 04:01:53;;;;;;;6.38;2.10;;;;;;;30.29;33.83;98071.94;4994315;28;20034;-79
2022/06/09 04:04:18;;;;;;;5.63;2.10;;;;;;;30.76;33.48;98064.88;4992695;28;20032;-77
2022/06/09 04:06:44;;;;;;;6.72;3.17;;;;;;;30.96;33.00;98068.69;4993602;28;20042;-79
2022/06/09 04:09:10;;;;;;;6.25;2.13;;;;;;;31.78;31.87;98068.78;4977180;28;20033;-78
2022/06/09 04:11:35;;;;;;;4.30;2.38;;;;;;;32.29;30.39;98067.88;4993029;28;20034;-79
2022/06/09 04:14:01;;;;;;;6.88;3.10;;;;;;;32.67;29.62;98072.91;4992995;28;20417;-80
2022/06/09 04:16:30;;;;;;;8.63;4.28;;;;;;;31.82;30.52;98071.75;4992771;28;20070;-79
2022/06/09 04:18:59;;;;;;;8.65;3.97;;;;;;;31.56;31.17;98079.88;4976095;28;20030;-80
2022/06/09 04:21:24;;;;;;;12.13;4.43;;;;;;;32.35;30.45;98072.19;4976773;28;20034;-79
2022/06/09 04:23:50;;;;;;;12.27;3.72;;;;;;;32.14;30.71;98079.53;4994238;28;20081;-81
2022/06/09 04:26:18;;;;;;;8.80;4.00;;;;;;;31.58;31.00;98080.41;4993909;28;20031;-79
2022/06/09 04:28:44;;;;;;;10.57;4.05;;;;;;;31.24;31.89;98077.41;4993899;28;20038;-80
2022/06/09 04:31:10;;;;;;;13.38;4.10;;;;;;;30.94;32.49;98071.66;4992379;28;20104;-82
2022/06/09 04:33:35;;;;;;;11.70;4.45;;;;;;;30.53;33.08;98071.53;4976231;28;20125;-82
2022/06/09 04:36:01;;;;;;;15.90;4.53;;;;;;;30.09;33.94;98072.66;4992281;28;20389;-79
2022/06/09 04:38:26;;;;;;;5.63;3.55;;;;;;;29.60;34.54;98072.81;4991016;28;20109;-76
2022/06/09 04:40:52;;;;;;;16.85;4.20;;;;;;;29.19;35.57;98069.78;4993648;28;20101;-78
2022/06/09 04:43:17;;;;;;;11.05;4.05;;;;;;;28.90;36.16;98067.31;4993419;28;20037;-78
2022/06/09 04:45:43;;;;;;;9.85;3.67;;;;;;;28.81;36.31;98058.94;4993591;28;20030;-79
2022/06/09 04:48:09;;;;;;;7.47;3.50;;;;;;;28.75;36.61;98067.16;4991837;28;20030;-78
2022/06/09 04:50:35;;;;;;;16.15;4.05;;;;;;;29.67;35.31;98057.28;4992618;28;20045;-73
2022/06/09 04:53:01;;;;;;;8.65;3.70;;;;;;;30.17;34.21;98057.88;4993302;28;20433;-72
2022/06/09 04:55:27;;;;;;;7.57;3.10;;;;;;;30.25;33.76;98051.19;4992337;28;20068;-72
2022/06/09 04:57:52;;;;;;;7.82;2.80;;;;;;;31.64;31.25;98054.22;4975554;28;20094;-74
2022/06/09 05:00:18;;;;;;;7.53;3.08;;;;;;;32.43;29.93;98060.00;4991791;28;20042;-72
2022/06/09 05:02:44;;;;;;;5.35;2.60;;;;;;;33.32;28.44;98051.97;4993001;28;20113;-74
2022/06/09 05:05:25;;;;;;;6.28;2.42;;;;;;;33.26;28.64;98055.00;4993090;28;20026;-72
2022/06/09 05:07:51;;;;;;;9.30;2.47;;;;;;;32.00;30.36;98062.28;4991710;28;20034;-75
2022/06/09 05:10:16;;;;;;;4.68;2.28;;;;;;;31.19;31.99;98060.13;4993191;28;20413;-73
2022/06/09 05:12:42;;;;;;;5.30;2.20;;;;;;;30.49;33.26;98065.06;4992300;28;20405;-73
2022/06/09 05:15:12;;;;;;;6.50;2.33;;;;;;;29.85;33.73;98064.16;4991684;28;20030;-74
2022/06/09 05:17:37;;;;;;;6.53;2.10;;;;;;;29.45;34.11;98073.53;4992168;28;20044;-73
2022/06/09 05:20:03;;;;;;;6.03;2.85;;;;;;;29.25;35.13;98065.28;4992623;28;20413;-73
2022/06/09 05:22:28;;;;;;;4.75;2.17;;;;;;;28.93;35.44;98066.81;4992049;28;20033;-73
2022/06/09 05:24:58;;;;;;;12.35;2.28;;;;;;;28.77;36.22;98060.47;4992860;28;20026;-72
2022/06/09 05:27:24;;;;;;;5.28;2.30;;;;;;;29.16;35.55;98054.13;4992793;28;20127;-74
2022/06/09 05:29:49;;;;;;;6.68;2.63;;;;;;;28.99;36.10;98071.19;4992512;28;20099;-79
2022/06/09 05:32:15;;;;;;;6.90;2.50;;;;;;;29.18;35.89;98063.56;4992698;28;20030;-75
2022/06/09 05:34:41;;;;;;;5.80;2.20;;;;;;;31.22;32.20;98066.88;4991643;28;20038;-80
2022/06/09 05:37:06;;;;;;;4.82;2.20;;;;;;;32.61;29.87;98067.50;4991726;28;20114;-72
2022/06/09 05:45:01;;;;;;;7.63;2.67;;;;;;;31.81;30.27;98068.25;4991934;28;20044;-70
2022/06/09 05:47:27;;;;;;;6.90;2.90;;;;;;;31.07;32.00;98070.34;4991803;28;20036;-71
2022/06/09 05:49:53;;;;;;;8.20;3.28;;;;;;;30.66;32.67;98060.28;4973762;28;20125;-71
2022/06/09 05:52:22;;;;;;;7.45;2.78;;;;;;;30.91;32.44;98072.19;4991405;28;20496;-72
2022/06/09 05:54:48;;;;;;;9.23;2.90;;;;;;;31.63;31.72;98076.88;4991714;28;20477;-71
2022/06/09 05:57:14;;;;;;;10.27;2.67;;;;;;;33.92;28.42;98067.13;4991437;28;20062;-76
2022/06/09 05:59:40;;;;;;;12.02;2.55;;;;;;;35.67;26.05;98072.97;4991365;28;20109;-74
2022/06/09 06:02:06;;;;;;;13.43;2.47;;;;;;;36.95;24.30;98069.69;4990843;28;20022;-74
2022/06/09 06:04:32;;;;;;;7.03;2.53;;;;;;;38.05;23.04;98075.72;4990983;28;20050;-75
2022/06/09 06:06:57;;;;;;;8.85;2.35;;;;;;;38.94;21.79;98064.72;4990762;28;20042;-76
2022/06/09 06:09:23;;;;;;;6.57;2.42;;;;;;;39.90;20.81;98061.88;4990520;28;20108;-74
2022/06/09 06:11:48;;;;;;;10.15;2.58;;;;;;;40.80;20.04;98070.91;4991399;28;20088;-74
2022/06/09 06:14:14;;;;;;;10.23;2.53;;;;;;;41.55;19.10;98072.06;4989759;28;20534;-74
2022/06/09 06:16:40;;;;;;;13.68;2.92;;;;;;;41.91;18.70;98068.63;4990986;28;20030;-74
2022/06/09 06:19:06;;;;;;;5.60;2.83;;;;;;;41.38;19.36;98070.31;4991003;28;20031;-74
2022/06/09 06:21:33;;;;;;;9.55;2.70;;;;;;;41.97;18.54;98069.19;4990816;28;20022;-74
2022/06/09 06:23:58;;;;;;;7.78;2.40;;;;;;;42.41;17.53;98080.41;4990686;28;20038;-75
2022/06/09 06:26:24;;;;;;;9.63;2.20;;;;;;;42.80;17.34;98064.34;4992329;28;20108;-75
2022/06/09 06:28:50;;;;;;;7.60;2.50;;;;;;;43.07;16.67;98075.72;4990807;28;20573;-74
2022/06/09 06:31:16;;;;;;;7.75;2.42;;;;;;;43.16;16.93;98073.63;4992176;28;20037;-74
2022/06/09 06:33:41;;;;;;;9.63;2.97;;;;;;;43.30;16.76;98070.50;4990799;28;20409;-74
2022/06/09 06:36:07;;;;;;;12.00;2.23;;;;;;;43.55;16.26;98065.69;4991831;28;20034;-74
2022/06/09 06:38:32;;;;;;;7.87;2.53;;;;;;;43.67;16.21;98055.78;4973422;28;20046;-75
2022/06/09 06:40:58;;;;;;;8.57;2.13;;;;;;;43.39;16.63;98051.13;4992134;28;20054;-75
2022/06/09 06:43:23;;;;;;;5.53;2.30;;;;;;;43.38;16.68;98060.53;4973837;28;20403;-74
2022/06/09 06:45:49;;;;;;;5.17;2.00;;;;;;;43.58;16.61;98058.69;4990414;28;20536;-74
2022/06/09 06:48:14;;;;;;;7.77;2.07;;;;;;;43.42;16.36;98063.38;4991589;28;20061;-74
2022/06/09 06:50:41;;;;;;;5.43;2.10;;;;;;;43.32;16.93;98061.91;4992177;28;20030;-74
2022/06/09 06:53:06;;;;;;;8.32;2.10;;;;;;;43.18;16.61;98065.84;5006877;28;20081;-89
2022/06/09 06:55:32;;;;;;;4.57;1.80;;;;;;;42.95;17.08;98054.59;5007255;28;20038;-86
2022/06/09 06:57:57;;;;;;;5.40;2.00;;;;;;;42.87;16.47;98052.00;4992235;28;20470;-72
2022/06/09 07:00:23;;;;;;;5.97;2.03;;;;;;;42.80;16.79;98061.59;4974539;28;20034;-72
2022/06/09 07:02:49;;;;;;;7.57;2.28;;;;;;;42.74;17.21;98053.97;5026454;28;20022;-73
2022/06/09 07:05:15;;;;;;;6.13;1.90;;;;;;;41.54;18.61;98051.28;5027047;28;20037;-74
2022/06/09 07:07:41;;;;;;;6.18;1.70;;;;;;;41.41;18.63;98044.97;4994037;28;20421;-74
2022/06/09 07:10:07;;;;;;;3.45;1.40;;;;;;;40.77;18.93;98046.97;4995449;28;20034;-71
2022/06/09 07:12:32;;;;;;;5.20;1.60;;;;;;;41.23;18.84;98047.88;5027671;28;20034;-74
2022/06/09 07:14:58;;;;;;;5.22;1.50;;;;;;;41.56;18.42;98049.00;4995241;28;20030;-74
2022/06/09 07:17:24;;;;;;;5.72;1.27;;;;;;;41.73;18.16;98050.78;4995234;28;20365;-74
2022/06/09 07:19:49;;;;;;;4.72;1.40;;;;;;;41.93;18.27;98057.31;4995310;28;20474;-73
2022/06/09 07:22:15;;;;;;;6.53;1.30;;;;;;;41.12;18.70;98052.16;4995193;28;20445;-74
2022/06/09 07:24:41;;;;;;;1.85;1.00;;;;;;;41.15;18.58;98053.41;4995484;28;20045;-74
2022/06/09 07:27:06;;;;;;;3.75;1.48;;;;;;;41.47;18.72;98051.06;4994945;28;20066;-74
2022/06/09 07:29:32;;;;;;;3.40;1.15;;;;;;;41.59;18.70;98051.88;4978167;28;20494;-73
2022/06/09 07:31:58;;;;;;;6.50;1.42;;;;;;;41.54;18.89;98041.13;4994770;28;20042;-74
2022/06/09 07:34:23;;;;;;;2.78;1.40;;;;;;;41.45;19.06;98047.84;5010117;28;20042;-73
2022/06/09 07:36:49;;;;;;;12.05;1.95;;;;;;;41.55;18.82;98050.16;4994362;28;20508;-75
2022/06/09 07:39:14;;;;;;;6.15;1.75;;;;;;;41.31;18.71;98043.47;5026445;28;20026;-74
2022/06/09 07:41:40;;;;;;;4.70;1.58;;;;;;;40.38;19.85;98054.44;4995365;28;20042;-75
2022/06/09 07:44:06;;;;;;;10.63;2.10;;;;;;;40.00;20.70;98038.09;4988898;28;20100;-73
2022/06/09 07:46:32;;;;;;;8.98;1.80;;;;;;;39.66;20.98;98046.03;4974710;28;20402;-76
2022/06/09 07:48:58;;;;;;;4.45;1.70;;;;;;;39.22;21.40;98046.13;4957903;28;20129;-74
2022/06/09 07:51:24;;;;;;;5.20;1.85;;;;;;;39.17;21.81;98043.56;4973903;28;20038;-74
2022/06/09 07:53:50;;;;;;;6.53;1.90;;;;;;;38.90;21.80;98037.28;4974695;28;20062;-78
2022/06/09 07:56:16;;;;;;;4.72;1.80;;;;;;;38.63;22.01;98041.13;4974200;28;20113;-75
2022/06/09 07:58:41;;;;;;;5.20;1.80;;;;;;;38.34;22.57;98038.97;4973755;28;20042;-76
2022/06/09 08:01:07;;;;;;;5.55;2.00;;;;;;;38.21;23.02;98040.69;4974127;28;20194;-76
2022/06/09 08:03:35;;;;;;;4.63;1.70;;;;;;;38.07;23.57;98040.00;4974337;28;20027;-77
2022/06/09 08:06:01;;;;;;;5.45;1.90;;;;;;;37.95;23.62;98027.75;4989251;28;20129;-78
2022/06/09 08:08:27;;;;;;;6.22;1.70;;;;;;;37.89;23.21;98023.59;4973772;28;20177;-78
2022/06/09 08:10:53;;;;;;;7.40;1.93;;;;;;;37.91;23.31;98031.44;4973740;28;20410;-76
2022/06/09 08:13:18;;;;;;;11.63;1.85;;;;;;;37.64;23.64;98036.72;4974053;28;20035;-76
2022/06/09 08:15:44;;;;;;;9.75;1.98;;;;;;;36.84;24.56;98036.47;4974950;28;20113;-77
2022/06/09 08:18:10;;;;;;;5.13;1.80;;;;;;;36.35;25.15;98025.28;4957702;28;20047;-77
2022/06/09 08:20:37;;;;;;;3.78;1.80;;;;;;;35.96;25.88;98023.03;4973463;28;20023;-77
2022/06/09 08:23:09;;;;;;;3.75;1.58;;;;;;;36.24;25.46;98029.28;4973366;28;20046;-79
2022/06/09 08:25:35;;;;;;;6.25;1.88;;;;;;;36.37;25.18;98022.25;4973816;28;20026;-78
2022/06/09 08:28:02;;;;;;;4.50;1.95;;;;;;;35.75;26.27;98020.72;4957018;28;20081;-76
2022/06/09 08:30:28;;;;;;;4.97;2.10;;;;;;;35.82;26.28;98025.75;4973257;28;20035;-77
2022/06/09 08:32:53;;;;;;;4.93;1.90;;;;;;;36.00;25.92;98030.28;4957278;28;20514;-75
2022/06/09 08:35:19;;;;;;;5.05;1.73;;;;;;;36.07;25.77;98021.75;4973357;28;20030;-78
2022/06/09 08:37:48;;;;;;;4.78;1.95;;;;;;;36.25;25.55;98020.06;4957450;28;20490;-80
2022/06/09 08:40:16;;;;;;;5.05;1.80;;;;;;;36.45;25.32;98021.53;4957754;28;20054;-79
2022/06/09 08:43:00;;;;;;;5.88;2.00;;;;;;;36.51;25.06;98019.50;4989839;28;20466;-78
2022/06/09 08:45:34;;;;;;;5.03;1.80;;;;;;;36.52;25.06;98015.69;4992595;28;20031;-77
2022/06/09 08:48:00;;;;;;;6.32;1.70;;;;;;;36.62;25.03;98015.47;4975681;28;20417;-78
2022/06/09 08:51:04;;;;;;;3.90;1.60;;;;;;;36.58;24.89;97996.25;4992616;28;20030;-78
2022/06/09 08:53:32;;;;;;;4.07;1.80;;;;;;;36.50;24.91;98001.59;4972081;28;20498;-78
2022/06/09 08:56:21;;;;;;;6.50;1.80;;;;;;;36.24;25.32;97996.69;4955542;28;20038;-76
2022/06/09 08:58:49;;;;;;;4.35;2.30;;;;;;;36.21;25.04;97991.84;4942625;28;20158;-78
2022/06/09 09:01:28;;;;;;;4.20;1.90;;;;;;;36.22;25.16;97983.41;4924187;28;20031;-76
2022/06/09 09:04:01;;;;;;;3.85;1.90;;;;;;;36.19;25.31;97992.16;4924315;28;20034;-79
2022/06/09 09:06:35;;;;;;;3.40;2.35;;;;;;;36.11;25.56;97978.50;4924442;28;20039;-79
2022/06/09 09:09:12;;;;;;;4.90;2.28;;;;;;;36.02;25.40;97981.09;4923934;28;20162;-78
2022/06/09 09:12:11;;;;;;;3.95;2.20;;;;;;;35.84;25.61;97986.34;4924825;28;20042;-77
2022/06/09 09:14:53;;;;;;;8.07;2.30;;;;;;;35.71;26.08;97980.88;4958175;28;20114;-78
2022/06/09 09:17:39;;;;;;;4.03;2.08;;;;;;;35.60;25.68;97972.94;4956509;28;20573;-76
2022/06/09 09:20:11;;;;;;;5.60;2.45;;;;;;;35.41;25.78;97969.47;4955740;28;20026;-76
2022/06/09 09:23:04;;;;;;;4.88;2.80;;;;;;;35.18;26.47;97969.31;4939563;28;20035;-76
2022/06/09 09:25:39;;;;;;;5.28;2.55;;;;;;;35.04;26.86;97958.41;4992418;28;20463;-77
2022/06/09 09:28:17;;;;;;;6.25;2.70;;;;;;;34.94;27.15;97962.09;4991792;28;20076;-77
2022/06/09 09:31:28;;;;;;;3.40;2.33;;;;;;;34.88;27.05;97959.78;4975810;28;20027;-76
2022/06/09 09:33:55;;;;;;;4.78;2.63;;;;;;;34.75;27.14;97953.19;4971042;28;20047;-77
2022/06/09 09:36:27;;;;;;;4.65;2.70;;;;;;;34.63;27.13;97959.03;4955337;28;20039;-76
2022/06/09 09:39:02;;;;;;;5.30;2.88;;;;;;;34.48;27.58;97951.94;4971582;28;20498;-77
2022/06/09 09:41:33;;;;;;;11.70;3.67;;;;;;;34.48;27.64;97941.09;4955342;28;20042;-73
2022/06/09 09:43:59;;;;;;;4.60;2.72;;;;;;;34.33;28.37;97957.56;4970275;28;20035;-76
2022/06/09 09:46:31;;;;;;;5.80;2.47;;;;;;;33.96;28.12;97951.78;4971373;28;20057;-76
2022/06/09 09:48:58;;;;;;;5.32;2.60;;;;;;;33.54;28.82;97954.13;4939599;28;20042;-75
2022/06/09 09:51:42;;;;;;;4.65;2.70;;;;;;;33.52;28.63;97955.47;4955041;28;20054;-74
2022/06/09 09:54:31;;;;;;;5.63;2.80;;;;;;;33.59;28.91;97947.03;4954651;28;20426;-78
2022/06/09 09:57:14;;;;;;;7.78;3.13;;;;;;;33.30;28.75;97954.06;4971351;28;20054;-76
2022/06/09 09:59:45;;;;;;;4.90;2.95;;;;;;;32.79;29.88;97960.69;4940172;28;20035;-77
2022/06/09 10:08:40;;;;;;;6.25;3.00;;;;;;;32.08;31.19;97953.75;4978000;28;20489;-76
2022/06/09 10:14:38;;;;;;;5.75;3.03;;;;;;;31.94;31.37;97942.72;4991077;28;20045;-75
2022/06/09 10:17:07;;;;;;;4.15;2.85;;;;;;;31.88;30.71;97944.66;4975319;28;20027;-75
2022/06/09 10:19:33;;;;;;;4.63;3.22;;;;;;;31.86;31.04;97932.50;4990596;28;20101;-78
2022/06/09 10:22:01;;;;;;;4.97;2.92;;;;;;;31.84;31.17;97945.47;4991091;28;20118;-75
2022/06/09 10:24:53;;;;;;;4.70;3.10;;;;;;;32.05;31.53;97928.09;4991023;28;20038;-78
2022/06/09 10:27:20;;;;;;;7.47;2.63;;;;;;;32.05;30.65;97927.31;4991140;28;20034;-76
2022/06/09 10:30:14;;;;;;;5.00;3.00;;;;;;;31.96;30.84;97916.28;4990623;28;20080;-77
2022/06/09 10:33:03;;;;;;;4.50;2.78;;;;;;;31.96;31.61;97916.28;4989611;28;20081;-77
2022/06/09 10:35:55;;;;;;;6.35;3.00;;;;;;;32.12;30.82;97922.44;4976683;28;20143;-77
2022/06/09 10:39:09;;;;;;;5.32;3.08;;;;;;;32.31;31.02;97916.38;4990263;28;20053;-76
2022/06/09 10:41:48;;;;;;;4.63;3.00;;;;;;;32.32;29.79;97921.50;4958238;28;20434;-75
2022/06/09 10:44:26;;;;;;;6.07;2.88;;;;;;;32.13;30.70;97899.75;4941159;28;20054;-78
2022/06/09 10:55:44;;;;;;;4.68;2.95;;;;;;;31.83;30.32;97887.97;4935861;29;20042;-76
2022/06/09 10:58:44;;;;;;;5.40;3.38;;;;;;;31.91;30.86;97890.13;4935406;29;20048;-77
2022/06/09 11:01:20;;;;;;;3.65;3.10;;;;;;;31.69;31.17;97884.28;4879034;29;20089;-75
2022/06/09 11:03:48;;;;;;;5.70;3.47;;;;;;;31.78;31.13;97877.22;4863530;29;20041;-76
2022/06/09 11:06:38;;;;;;;4.35;3.58;;;;;;;31.85;30.93;97880.44;4878474;29;20037;-78
2022/06/09 11:09:10;;;;;;;5.30;3.10;;;;;;;31.90;30.98;97866.91;4879288;29;20033;-77
2022/06/09 11:11:45;;;;;;;9.85;3.63;;;;;;;31.69;31.23;97862.69;4863128;29;20513;-79
2022/06/09 11:14:22;;;;;;;4.10;3.30;;;;;;;31.51;31.30;97856.78;4878713;29;20522;-83
2022/06/09 11:16:48;;;;;;;;;;;;;;;31.51;31.25;97859.50;4904894;29;20079;-75
2022/06/09 11:19:23;;;;;;;6.63;3.60;;;;;;;31.55;31.27;97859.81;4935324;29;19976;-77
2022/06/09 11:22:11;;;;;;;4.50;3.78;;;;;;;31.51;31.55;97856.00;4922383;29;20459;-74
2022/06/09 11:24:36;;;;;;;7.20;3.47;;;;;;;31.59;31.27;97860.06;4859840;29;20037;-73
2022/06/09 11:27:11;;;;;;;4.25;3.60;;;;;;;31.59;31.29;97868.13;4859987;29;20585;-74
2022/06/09 11:29:49;;;;;;;6.65;3.90;;;;;;;31.57;31.49;97854.94;4860011;29;20113;-76
2022/06/09 11:32:21;;;;;;;4.85;3.80;;;;;;;31.48;31.76;97851.16;4859874;29;20049;-73
2022/06/09 11:35:14;;;;;;;4.30;3.90;;;;;;;31.59;31.63;97839.28;4829010;29;20425;-74
2022/06/09 11:38:00;;;;;;;3.92;3.47;;;;;;;31.77;31.43;97853.22;4876154;29;20045;-73
2022/06/09 11:40:31;;;;;;;6.85;3.90;;;;;;;31.79;31.21;97857.25;4862504;29;20131;-73
2022/06/09 11:43:00;;;;;;;6.35;3.45;;;;;;;31.77;31.72;97854.03;4880957;29;20136;-72
2022/06/09 11:45:57;;;;;;;3.80;3.40;;;;;;;31.73;31.10;97853.78;4897326;29;20036;-75
2022/06/09 11:48:35;;;;;;;7.68;3.88;;;;;;;31.73;32.01;97851.06;4877720;29;20037;-76
2022/06/09 11:51:00;;;;;;;6.95;3.72;;;;;;;31.74;31.91;97847.31;4866160;29;20127;-77
2022/06/09 11:53:28;;;;;;;6.28;3.50;;;;;;;31.76;31.91;97857.81;4865506;29;20124;-75
2022/06/09 11:56:12;;;;;;;;;;;;;;;31.89;31.75;97870.69;4881332;29;20045;-76
2022/06/09 11:58:39;;;;;;;6.60;3.72;;;;;;;31.78;31.98;97869.13;4896823;29;20430;-74
2022/06/09 12:01:16;;;;;;;5.00;3.60;;;;;;;31.76;31.78;97863.22;4919811;28;20038;-74
2022/06/09 12:03:53;;;;;;;6.63;3.55;;;;;;;31.64;31.91;97866.22;4993232;28;20027;-76
2022/06/09 12:06:31;;;;;;;5.00;3.60;;;;;;;31.52;32.32;97866.50;4992540;28;20046;-82
2022/06/09 12:09:34;;;;;;;4.43;3.25;;;;;;;31.41;32.71;97872.19;4977694;28;20039;-76
2022/06/09 12:12:25;;;;;;;16.95;3.60;;;;;;;31.19;32.82;97878.72;4973267;28;20146;-76